sensor_id;sensor_type;location;lat;lon;timestamp;pressure;altitude;pressure_sealevel;temperature;humidity
15604;BME280;7902;49.042;9.092;2022-08-19T00:01:29;98609.25;;;25.85;49.81
15604;BME280;7902;49.042;9.092;2022-08-19T00:04:01;98601.44;;;25.84;49.56
15604;BME280;7902;49.042;9.092;2022-08-19T00:06:29;98598.44;;;25.92;49.71
15604;BME280;7902;49.042;9.092;2022-08-19T00:08:56;98598.28;;;25.87;49.49
15604;BME280;7902;49.042;9.092;2022-08-19T00:11:23;98596.91;;;25.77;50.09
15604;BME280;7902;49.042;9.092;2022-08-19T00:13:49;98596.63;;;25.86;49.67
15604;BME280;7902;49.042;9.092;2022-08-19T00:16:17;98593.94;;;25.86;49.55
15604;BME280;7902;49.042;9.092;2022-08-19T00:18:47;98598.75;;;25.84;49.88
15604;BME280;7902;49.042;9.092;2022-08-19T00:21:13;98593.22;;;25.97;49.45
15604;BME280;7902;49.042;9.092;2022-08-19T00:23:40;98577.88;;;25.79;49.83
15604;BME280;7902;49.042;9.092;2022-08-19T00:26:07;98589.69;;;25.78;50.28
15604;BME280;7902;49.042;9.092;2022-08-19T00:28:33;98602.09;;;25.79;50.01
15604;BME280;7902;49.042;9.092;2022-08-19T00:31:06;98612.22;;;25.77;50.15
15604;BME280;7902;49.042;9.092;2022-08-19T00:33:32;98606.94;;;25.70;50.30
15604;BME280;7902;49.042;9.092;2022-08-19T00:36:03;98603.84;;;25.67;50.31
15604;BME280;7902;49.042;9.092;2022-08-19T00:38:31;98602.75;;;25.74;50.44
15604;BME280;7902;49.042;9.092;2022-08-19T00:40:57;98592.53;;;25.58;50.62
15604;BME280;7902;49.042;9.092;2022-08-19T00:43:26;98595.00;;;25.60;50.62
15604;BME280;7902;49.042;9.092;2022-08-19T00:45:53;98588.28;;;25.75;50.29
15604;BME280;7902;49.042;9.092;2022-08-19T00:48:20;98573.44;;;25.66;50.56
15604;BME280;7902;49.042;9.092;2022-08-19T00:50:47;98563.94;;;25.64;50.74
15604;BME280;7902;49.042;9.092;2022-08-19T00:53:18;98548.69;;;25.58;50.81
15604;BME280;7902;49.042;9.092;2022-08-19T00:55:47;98539.97;;;25.62;50.84
15604;BME280;7902;49.042;9.092;2022-08-19T00:58:17;98546.63;;;25.53;50.97
15604;BME280;7902;49.042;9.092;2022-08-19T01:00:46;98546.41;;;25.61;51.02
15604;BME280;7902;49.042;9.092;2022-08-19T01:03:15;98556.19;;;25.49;50.95
15604;BME280;7902;49.042;9.092;2022-08-19T01:05:43;98558.19;;;25.60;50.65
15604;BME280;7902;49.042;9.092;2022-08-19T01:08:10;98557.78;;;25.57;51.47
15604;BME280;7902;49.042;9.092;2022-08-19T01:10:45;98568.13;;;25.60;50.86
15604;BME280;7902;49.042;9.092;2022-08-19T01:13:15;98577.09;;;25.47;51.09
15604;BME280;7902;49.042;9.092;2022-08-19T01:15:48;98586.63;;;25.43;51.40
15604;BME280;7902;49.042;9.092;2022-08-19T01:18:18;98588.06;;;25.46;51.26
15604;BME280;7902;49.042;9.092;2022-08-19T01:20:45;98590.31;;;25.49;51.10
15604;BME280;7902;49.042;9.092;2022-08-19T01:23:12;98584.38;;;25.40;51.49
15604;BME280;7902;49.042;9.092;2022-08-19T01:25:47;98582.59;;;25.59;50.79
15604;BME280;7902;49.042;9.092;2022-08-19T01:28:26;98588.81;;;25.59;50.97
15604;BME280;7902;49.042;9.092;2022-08-19T01:30:53;98587.94;;;25.65;50.57
15604;BME280;7902;49.042;9.092;2022-08-19T01:33:20;98593.56;;;25.57;50.96
15604;BME280;7902;49.042;9.092;2022-08-19T01:35:46;98594.81;;;25.61;50.59
15604;BME280;7902;49.042;9.092;2022-08-19T01:38:24;98589.19;;;25.63;51.01
15604;BME280;7902;49.042;9.092;2022-08-19T01:40:50;98592.31;;;25.60;51.04
15604;BME280;7902;49.042;9.092;2022-08-19T01:43:16;98588.34;;;25.62;50.80
15604;BME280;7902;49.042;9.092;2022-08-19T01:45:45;98586.38;;;25.51;51.23
15604;BME280;7902;49.042;9.092;2022-08-19T01:48:11;98580.16;;;25.51;51.32
15604;BME280;7902;49.042;9.092;2022-08-19T01:50:38;98578.72;;;25.48;51.35
15604;BME280;7902;49.042;9.092;2022-08-19T01:53:07;98581.41;;;25.48;51.34
15604;BME280;7902;49.042;9.092;2022-08-19T01:55:36;98589.78;;;25.33;51.89
15604;BME280;7902;49.042;9.092;2022-08-19T01:58:03;98585.00;;;25.42;51.81
15604;BME280;7902;49.042;9.092;2022-08-19T02:00:31;98580.81;;;25.46;51.30
15604;BME280;7902;49.042;9.092;2022-08-19T02:02:57;98580.41;;;25.43;51.55
15604;BME280;7902;49.042;9.092;2022-08-19T02:05:23;98569.94;;;25.34;51.84
15604;BME280;7902;49.042;9.092;2022-08-19T02:07:49;98566.88;;;25.31;51.91
15604;BME280;7902;49.042;9.092;2022-08-19T02:10:21;98573.63;;;25.40;51.68
15604;BME280;7902;49.042;9.092;2022-08-19T02:12:48;98582.81;;;25.26;52.42
15604;BME280;7902;49.042;9.092;2022-08-19T02:15:15;98590.38;;;25.11;52.89
15604;BME280;7902;49.042;9.092;2022-08-19T02:17:41;98593.69;;;25.06;52.79
15604;BME280;7902;49.042;9.092;2022-08-19T02:20:08;98597.56;;;25.17;52.50
15604;BME280;7902;49.042;9.092;2022-08-19T02:22:34;98594.88;;;25.17;52.67
15604;BME280;7902;49.042;9.092;2022-08-19T02:25:01;98590.34;;;25.17;52.34
15604;BME280;7902;49.042;9.092;2022-08-19T02:27:27;98590.63;;;25.34;51.84
15604;BME280;7902;49.042;9.092;2022-08-19T02:29:53;98582.44;;;25.22;52.38
15604;BME280;7902;49.042;9.092;2022-08-19T02:32:19;98587.25;;;25.14;52.51
15604;BME280;7902;49.042;9.092;2022-08-19T02:34:47;98586.81;;;25.17;52.55
15604;BME280;7902;49.042;9.092;2022-08-19T02:37:13;98591.16;;;25.18;52.42
15604;BME280;7902;49.042;9.092;2022-08-19T02:39:58;98589.16;;;25.07;52.93
15604;BME280;7902;49.042;9.092;2022-08-19T02:42:24;98593.06;;;25.11;52.45
15604;BME280;7902;49.042;9.092;2022-08-19T02:44:50;98587.56;;;24.99;52.93
15604;BME280;7902;49.042;9.092;2022-08-19T02:47:18;98594.09;;;25.10;52.76
15604;BME280;7902;49.042;9.092;2022-08-19T02:49:45;98585.06;;;25.04;52.89
15604;BME280;7902;49.042;9.092;2022-08-19T02:52:11;98586.69;;;25.05;52.71
15604;BME280;7902;49.042;9.092;2022-08-19T02:54:37;98595.34;;;25.07;52.72
15604;BME280;7902;49.042;9.092;2022-08-19T02:57:04;98593.50;;;25.08;52.63
15604;BME280;7902;49.042;9.092;2022-08-19T02:59:32;98591.06;;;25.00;52.97
15604;BME280;7902;49.042;9.092;2022-08-19T03:01:58;98592.75;;;24.94;53.06
15604;BME280;7902;49.042;9.092;2022-08-19T03:04:24;98585.63;;;25.06;52.58
15604;BME280;7902;49.042;9.092;2022-08-19T03:06:51;98573.03;;;25.07;52.38
15604;BME280;7902;49.042;9.092;2022-08-19T03:09:18;98581.34;;;24.99;53.05
15604;BME280;7902;49.042;9.092;2022-08-19T03:11:45;98580.53;;;24.98;53.10
15604;BME280;7902;49.042;9.092;2022-08-19T03:14:12;98579.97;;;24.89;53.82
15604;BME280;7902;49.042;9.092;2022-08-19T03:16:44;98581.00;;;24.88;53.12
15604;BME280;7902;49.042;9.092;2022-08-19T03:19:11;98579.13;;;24.82;53.56
15604;BME280;7902;49.042;9.092;2022-08-19T03:21:37;98586.81;;;24.79;53.55
15604;BME280;7902;49.042;9.092;2022-08-19T03:24:07;98586.97;;;24.84;53.53
15604;BME280;7902;49.042;9.092;2022-08-19T03:26:37;98593.25;;;24.71;53.67
15604;BME280;7902;49.042;9.092;2022-08-19T03:29:04;98593.66;;;24.68;53.59
15604;BME280;7902;49.042;9.092;2022-08-19T03:31:31;98589.03;;;24.82;53.40
15604;BME280;7902;49.042;9.092;2022-08-19T03:33:56;98602.13;;;24.72;53.83
15604;BME280;7902;49.042;9.092;2022-08-19T03:36:25;98601.66;;;24.81;53.44
15604;BME280;7902;49.042;9.092;2022-08-19T03:38:54;98602.06;;;24.85;53.33
15604;BME280;7902;49.042;9.092;2022-08-19T03:41:32;98603.13;;;24.77;53.49
15604;BME280;7902;49.042;9.092;2022-08-19T03:43:59;98602.53;;;24.75;53.46
15604;BME280;7902;49.042;9.092;2022-08-19T03:46:28;98598.19;;;24.74;53.72
15604;BME280;7902;49.042;9.092;2022-08-19T03:48:58;98589.69;;;24.77;53.34
15604;BME280;7902;49.042;9.092;2022-08-19T03:51:27;98601.31;;;24.71;53.95
15604;BME280;7902;49.042;9.092;2022-08-19T03:53:54;98589.09;;;24.75;53.85
15604;BME280;7902;49.042;9.092;2022-08-19T03:56:21;98599.00;;;24.75;53.37
15604;BME280;7902;49.042;9.092;2022-08-19T03:58:48;98586.81;;;24.79;53.47
15604;BME280;7902;49.042;9.092;2022-08-19T04:01:17;98588.47;;;24.73;53.56
15604;BME280;7902;49.042;9.092;2022-08-19T04:03:44;98585.59;;;24.75;53.56
15604;BME280;7902;49.042;9.092;2022-08-19T04:06:22;98585.59;;;24.68;53.57
15604;BME280;7902;49.042;9.092;2022-08-19T04:08:50;98600.88;;;24.68;53.78
15604;BME280;7902;49.042;9.092;2022-08-19T04:11:23;98605.44;;;24.67;53.69
15604;BME280;7902;49.042;9.092;2022-08-19T04:13:50;98609.97;;;24.73;53.67
15604;BME280;7902;49.042;9.092;2022-08-19T04:16:20;98603.81;;;24.66;53.87
15604;BME280;7902;49.042;9.092;2022-08-19T04:18:48;98600.88;;;24.74;53.56
15604;BME280;7902;49.042;9.092;2022-08-19T04:21:23;98602.34;;;24.70;53.66
15604;BME280;7902;49.042;9.092;2022-08-19T04:23:50;98600.50;;;24.64;53.87
15604;BME280;7902;49.042;9.092;2022-08-19T04:26:31;98600.28;;;24.66;53.81
15604;BME280;7902;49.042;9.092;2022-08-19T04:29:01;98603.00;;;24.59;54.13
15604;BME280;7902;49.042;9.092;2022-08-19T04:31:30;98614.59;;;24.53;54.01
15604;BME280;7902;49.042;9.092;2022-08-19T04:33:58;98609.88;;;24.42;54.71
15604;BME280;7902;49.042;9.092;2022-08-19T04:36:34;98603.06;;;24.39;54.66
15604;BME280;7902;49.042;9.092;2022-08-19T04:39:05;98602.03;;;24.47;54.32
15604;BME280;7902;49.042;9.092;2022-08-19T04:41:31;98589.38;;;24.54;54.42
15604;BME280;7902;49.042;9.092;2022-08-19T04:44:16;98587.97;;;24.45;54.49
15604;BME280;7902;49.042;9.092;2022-08-19T04:46:45;98587.59;;;24.41;54.63
15604;BME280;7902;49.042;9.092;2022-08-19T04:49:12;98581.78;;;24.44;54.75
15604;BME280;7902;49.042;9.092;2022-08-19T04:51:41;98584.44;;;24.51;54.63
15604;BME280;7902;49.042;9.092;2022-08-19T04:54:08;98595.19;;;24.51;54.44
15604;BME280;7902;49.042;9.092;2022-08-19T04:56:34;98591.88;;;24.56;53.86
15604;BME280;7902;49.042;9.092;2022-08-19T04:59:00;98612.94;;;24.52;54.25
15604;BME280;7902;49.042;9.092;2022-08-19T05:01:31;98613.97;;;24.51;54.09
15604;BME280;7902;49.042;9.092;2022-08-19T05:04:00;98613.34;;;24.49;54.32
15604;BME280;7902;49.042;9.092;2022-08-19T05:06:26;98615.63;;;24.52;54.48
15604;BME280;7902;49.042;9.092;2022-08-19T05:08:54;98612.94;;;24.52;54.18
15604;BME280;7902;49.042;9.092;2022-08-19T05:11:28;98615.19;;;24.55;54.22
15604;BME280;7902;49.042;9.092;2022-08-19T05:13:55;98614.19;;;24.49;54.36
15604;BME280;7902;49.042;9.092;2022-08-19T05:16:23;98619.34;;;24.58;54.30
15604;BME280;7902;49.042;9.092;2022-08-19T05:18:49;98619.53;;;24.56;54.17
15604;BME280;7902;49.042;9.092;2022-08-19T05:21:34;98622.81;;;24.65;53.80
15604;BME280;7902;49.042;9.092;2022-08-19T05:24:20;98626.56;;;24.51;54.40
15604;BME280;7902;49.042;9.092;2022-08-19T05:26:49;98637.31;;;24.51;54.46
15604;BME280;7902;49.042;9.092;2022-08-19T05:29:18;98638.13;;;24.51;54.36
15604;BME280;7902;49.042;9.092;2022-08-19T05:31:47;98643.13;;;24.34;54.70
15604;BME280;7902;49.042;9.092;2022-08-19T05:34:15;98640.63;;;24.46;54.44
15604;BME280;7902;49.042;9.092;2022-08-19T05:36:44;98650.53;;;24.52;54.10
15604;BME280;7902;49.042;9.092;2022-08-19T05:39:13;98646.56;;;24.61;54.17
15604;BME280;7902;49.042;9.092;2022-08-19T05:42:03;98663.34;;;24.43;54.89
15604;BME280;7902;49.042;9.092;2022-08-19T05:44:31;98672.00;;;24.45;54.71
15604;BME280;7902;49.042;9.092;2022-08-19T05:47:02;98680.09;;;24.39;55.04
15604;BME280;7902;49.042;9.092;2022-08-19T05:49:30;98681.91;;;24.45;54.98
15604;BME280;7902;49.042;9.092;2022-08-19T05:51:57;98684.19;;;24.48;54.54
15604;BME280;7902;49.042;9.092;2022-08-19T05:54:25;98687.91;;;24.47;54.63
15604;BME280;7902;49.042;9.092;2022-08-19T05:56:52;98699.25;;;24.49;54.80
15604;BME280;7902;49.042;9.092;2022-08-19T05:59:20;98685.03;;;24.35;54.60
15604;BME280;7902;49.042;9.092;2022-08-19T06:01:48;98701.34;;;24.40;54.91
15604;BME280;7902;49.042;9.092;2022-08-19T06:04:18;98701.34;;;24.34;55.11
15604;BME280;7902;49.042;9.092;2022-08-19T06:06:48;98701.75;;;24.37;55.13
15604;BME280;7902;49.042;9.092;2022-08-19T06:09:15;98706.50;;;24.42;55.03
15604;BME280;7902;49.042;9.092;2022-08-19T06:11:45;98710.59;;;24.51;54.76
15604;BME280;7902;49.042;9.092;2022-08-19T06:14:15;98701.72;;;24.44;54.84
15604;BME280;7902;49.042;9.092;2022-08-19T06:16:42;98704.41;;;24.51;54.45
15604;BME280;7902;49.042;9.092;2022-08-19T06:19:11;98705.44;;;24.49;54.76
15604;BME280;7902;49.042;9.092;2022-08-19T06:21:39;98695.13;;;24.53;54.44
15604;BME280;7902;49.042;9.092;2022-08-19T06:24:07;98705.25;;;24.51;54.29
15604;BME280;7902;49.042;9.092;2022-08-19T06:26:36;98703.38;;;24.52;54.67
15604;BME280;7902;49.042;9.092;2022-08-19T06:29:04;98717.44;;;24.47;54.60
15604;BME280;7902;49.042;9.092;2022-08-19T06:31:33;98700.94;;;24.37;54.79
15604;BME280;7902;49.042;9.092;2022-08-19T06:34:01;98708.34;;;24.48;54.35
15604;BME280;7902;49.042;9.092;2022-08-19T06:36:35;98709.81;;;24.31;55.28
15604;BME280;7902;49.042;9.092;2022-08-19T06:39:08;98703.81;;;24.42;54.73
15604;BME280;7902;49.042;9.092;2022-08-19T06:41:37;98697.22;;;24.38;54.94
15604;BME280;7902;49.042;9.092;2022-08-19T06:44:04;98695.56;;;24.37;55.41
15604;BME280;7902;49.042;9.092;2022-08-19T06:46:30;98700.69;;;24.45;55.00
15604;BME280;7902;49.042;9.092;2022-08-19T06:48:57;98704.66;;;24.42;54.71
15604;BME280;7902;49.042;9.092;2022-08-19T06:51:23;98705.25;;;24.44;55.01
15604;BME280;7902;49.042;9.092;2022-08-19T06:53:51;98706.91;;;24.45;54.94
15604;BME280;7902;49.042;9.092;2022-08-19T06:56:20;98701.13;;;24.42;55.17
15604;BME280;7902;49.042;9.092;2022-08-19T06:58:47;98698.66;;;24.40;55.06
15604;BME280;7902;49.042;9.092;2022-08-19T07:01:16;98707.72;;;24.46;54.86
15604;BME280;7902;49.042;9.092;2022-08-19T07:03:42;98714.13;;;24.45;54.77
15604;BME280;7902;49.042;9.092;2022-08-19T07:06:12;98716.81;;;24.45;55.30
15604;BME280;7902;49.042;9.092;2022-08-19T07:08:38;98711.44;;;24.45;55.05
15604;BME280;7902;49.042;9.092;2022-08-19T07:11:07;98718.47;;;24.39;55.40
15604;BME280;7902;49.042;9.092;2022-08-19T07:13:34;98712.91;;;24.47;55.07
15604;BME280;7902;49.042;9.092;2022-08-19T07:16:05;98716.81;;;24.45;55.46
15604;BME280;7902;49.042;9.092;2022-08-19T07:18:31;98711.41;;;24.58;54.87
15604;BME280;7902;49.042;9.092;2022-08-19T07:21:10;98719.88;;;24.55;54.62
15604;BME280;7902;49.042;9.092;2022-08-19T07:23:37;98713.25;;;24.64;54.24
15604;BME280;7902;49.042;9.092;2022-08-19T07:26:18;98719.47;;;24.65;54.78
15604;BME280;7902;49.042;9.092;2022-08-19T07:28:45;98716.56;;;24.66;54.51
15604;BME280;7902;49.042;9.092;2022-08-19T07:31:20;98716.53;;;24.73;54.50
15604;BME280;7902;49.042;9.092;2022-08-19T07:33:49;98717.34;;;24.80;54.89
15604;BME280;7902;49.042;9.092;2022-08-19T07:36:18;98723.31;;;24.82;54.89
15604;BME280;7902;49.042;9.092;2022-08-19T07:38:46;98725.19;;;24.81;54.51
15604;BME280;7902;49.042;9.092;2022-08-19T07:41:19;98729.75;;;24.74;55.23
15604;BME280;7902;49.042;9.092;2022-08-19T07:43:46;98730.16;;;24.84;54.83
15604;BME280;7902;49.042;9.092;2022-08-19T07:46:13;98725.81;;;24.90;55.17
15604;BME280;7902;49.042;9.092;2022-08-19T07:48:41;98721.28;;;24.77;55.14
15604;BME280;7902;49.042;9.092;2022-08-19T07:51:09;98733.84;;;24.97;55.52
15604;BME280;7902;49.042;9.092;2022-08-19T07:53:37;98731.34;;;25.02;55.12
15604;BME280;7902;49.042;9.092;2022-08-19T07:56:05;98744.00;;;24.95;55.32
15604;BME280;7902;49.042;9.092;2022-08-19T07:58:34;98735.06;;;25.07;54.36
15604;BME280;7902;49.042;9.092;2022-08-19T08:01:01;98733.78;;;25.10;54.74
15604;BME280;7902;49.042;9.092;2022-08-19T08:03:28;98729.66;;;25.14;54.45
15604;BME280;7902;49.042;9.092;2022-08-19T08:06:14;98737.53;;;25.09;55.25
15604;BME280;7902;49.042;9.092;2022-08-19T08:09:00;98732.94;;;25.16;54.79
15604;BME280;7902;49.042;9.092;2022-08-19T08:11:46;98730.88;;;25.18;54.56
15604;BME280;7902;49.042;9.092;2022-08-19T08:14:18;98738.50;;;25.21;54.65
15604;BME280;7902;49.042;9.092;2022-08-19T08:16:45;98731.91;;;25.23;54.59
15604;BME280;7902;49.042;9.092;2022-08-19T08:19:12;98734.53;;;25.30;54.35
15604;BME280;7902;49.042;9.092;2022-08-19T08:21:41;98731.25;;;25.28;54.41
15604;BME280;7902;49.042;9.092;2022-08-19T08:24:07;98736.03;;;25.19;54.86
15604;BME280;7902;49.042;9.092;2022-08-19T08:26:33;98737.22;;;25.30;54.66
15604;BME280;7902;49.042;9.092;2022-08-19T08:28:59;98753.41;;;25.23;54.55
15604;BME280;7902;49.042;9.092;2022-08-19T08:31:24;98753.59;;;25.22;54.83
15604;BME280;7902;49.042;9.092;2022-08-19T08:33:50;98758.59;;;25.18;54.70
15604;BME280;7902;49.042;9.092;2022-08-19T08:36:17;98749.47;;;25.19;54.76
15604;BME280;7902;49.042;9.092;2022-08-19T08:38:44;98757.72;;;25.24;54.93
15604;BME280;7902;49.042;9.092;2022-08-19T08:41:21;98746.56;;;25.27;54.73
15604;BME280;7902;49.042;9.092;2022-08-19T08:43:50;98743.44;;;25.24;54.81
15604;BME280;7902;49.042;9.092;2022-08-19T08:46:35;98744.91;;;25.26;55.02
15604;BME280;7902;49.042;9.092;2022-08-19T08:49:29;98739.72;;;25.31;54.96
15604;BME280;7902;49.042;9.092;2022-08-19T08:52:02;98741.56;;;25.31;54.68
15604;BME280;7902;49.042;9.092;2022-08-19T08:54:33;98739.09;;;25.29;55.19
15604;BME280;7902;49.042;9.092;2022-08-19T08:57:03;98743.44;;;25.30;54.78
15604;BME280;7902;49.042;9.092;2022-08-19T08:59:31;98747.72;;;25.38;55.04
15604;BME280;7902;49.042;9.092;2022-08-19T09:02:00;98738.88;;;25.38;55.42
15604;BME280;7902;49.042;9.092;2022-08-19T09:04:27;98739.44;;;25.46;55.17
15604;BME280;7902;49.042;9.092;2022-08-19T09:09:30;98726.41;;;25.43;55.21
15604;BME280;7902;49.042;9.092;2022-08-19T09:14:48;98722.09;;;25.42;55.52
15604;BME280;7902;49.042;9.092;2022-08-19T09:17:16;98723.69;;;25.56;54.76
15604;BME280;7902;49.042;9.092;2022-08-19T09:20:35;98729.44;;;25.53;55.42
15604;BME280;7902;49.042;9.092;2022-08-19T09:22:37;98724.50;;;25.57;55.21
15604;BME280;7902;49.042;9.092;2022-08-19T09:25:05;98729.00;;;25.63;54.98
15604;BME280;7902;49.042;9.092;2022-08-19T09:27:31;98727.81;;;25.59;55.11
15604;BME280;7902;49.042;9.092;2022-08-19T09:29:57;98728.34;;;25.67;54.87
15604;BME280;7902;49.042;9.092;2022-08-19T09:32:24;98723.25;;;25.59;54.51
15604;BME280;7902;49.042;9.092;2022-08-19T09:34:51;98734.13;;;25.71;54.49
15604;BME280;7902;49.042;9.092;2022-08-19T09:37:20;98732.69;;;25.68;54.65
15604;BME280;7902;49.042;9.092;2022-08-19T09:39:47;98733.88;;;25.79;54.66
15604;BME280;7902;49.042;9.092;2022-08-19T09:42:13;98738.25;;;25.73;54.09
15604;BME280;7902;49.042;9.092;2022-08-19T09:44:40;98738.69;;;25.70;55.04
15604;BME280;7902;49.042;9.092;2022-08-19T09:47:08;98743.19;;;25.76;54.53
15604;BME280;7902;49.042;9.092;2022-08-19T09:49:34;98745.81;;;25.90;54.48
15604;BME280;7902;49.042;9.092;2022-08-19T09:52:00;98743.75;;;25.85;54.45
15604;BME280;7902;49.042;9.092;2022-08-19T09:54:27;98741.88;;;25.86;54.31
15604;BME280;7902;49.042;9.092;2022-08-19T09:56:55;98740.81;;;25.93;54.35
15604;BME280;7902;49.042;9.092;2022-08-19T09:59:21;98745.00;;;25.89;54.07
15604;BME280;7902;49.042;9.092;2022-08-19T10:01:47;98746.78;;;25.95;54.36
15604;BME280;7902;49.042;9.092;2022-08-19T10:04:13;98736.03;;;25.95;54.31
15604;BME280;7902;49.042;9.092;2022-08-19T10:06:39;98744.06;;;26.02;53.47
15604;BME280;7902;49.042;9.092;2022-08-19T10:09:06;98737.19;;;26.06;53.75
15604;BME280;7902;49.042;9.092;2022-08-19T10:11:34;98737.19;;;26.06;53.59
15604;BME280;7902;49.042;9.092;2022-08-19T10:14:02;98739.50;;;26.02;53.17
15604;BME280;7902;49.042;9.092;2022-08-19T10:16:28;98746.84;;;26.13;52.92
15604;BME280;7902;49.042;9.092;2022-08-19T10:18:54;98747.31;;;26.10;52.88
15604;BME280;7902;49.042;9.092;2022-08-19T10:21:23;98742.75;;;26.11;52.96
15604;BME280;7902;49.042;9.092;2022-08-19T10:23:52;98746.81;;;26.20;52.89
15604;BME280;7902;49.042;9.092;2022-08-19T10:26:25;98746.19;;;26.18;52.95
15604;BME280;7902;49.042;9.092;2022-08-19T10:28:51;98740.41;;;26.21;52.73
15604;BME280;7902;49.042;9.092;2022-08-19T10:31:21;98747.16;;;26.30;52.62
15604;BME280;7902;49.042;9.092;2022-08-19T10:33:49;98747.03;;;26.18;52.59
15604;BME280;7902;49.042;9.092;2022-08-19T10:36:20;98741.78;;;26.30;52.98
15604;BME280;7902;49.042;9.092;2022-08-19T10:38:50;98730.31;;;26.41;52.64
15604;BME280;7902;49.042;9.092;2022-08-19T10:41:22;98727.31;;;26.49;52.82
15604;BME280;7902;49.042;9.092;2022-08-19T10:43:53;98724.34;;;26.33;52.69
15604;BME280;7902;49.042;9.092;2022-08-19T10:46:21;98723.31;;;26.34;52.65
15604;BME280;7902;49.042;9.092;2022-08-19T10:48:47;98715.19;;;26.40;52.60
15604;BME280;7902;49.042;9.092;2022-08-19T10:51:15;98710.72;;;26.52;52.13
15604;BME280;7902;49.042;9.092;2022-08-19T10:54:00;98715.44;;;26.57;51.94
15604;BME280;7902;49.042;9.092;2022-08-19T10:56:28;98708.69;;;26.66;52.06
15604;BME280;7902;49.042;9.092;2022-08-19T10:59:13;98703.94;;;26.68;51.64
15604;BME280;7902;49.042;9.092;2022-08-19T11:01:42;98699.63;;;26.60;51.80
15604;BME280;7902;49.042;9.092;2022-08-19T11:04:09;98708.63;;;26.73;51.49
15604;BME280;7902;49.042;9.092;2022-08-19T11:06:37;98697.88;;;26.73;51.38
15604;BME280;7902;49.042;9.092;2022-08-19T11:09:04;98701.97;;;26.75;50.98
15604;BME280;7902;49.042;9.092;2022-08-19T11:11:31;98708.44;;;26.74;51.27
15604;BME280;7902;49.042;9.092;2022-08-19T11:14:13;98711.69;;;26.76;51.34
15604;BME280;7902;49.042;9.092;2022-08-19T11:16:40;98713.56;;;26.76;51.24
15604;BME280;7902;49.042;9.092;2022-08-19T11:19:08;98723.38;;;26.70;51.25
15604;BME280;7902;49.042;9.092;2022-08-19T11:21:37;98713.13;;;26.79;51.07
15604;BME280;7902;49.042;9.092;2022-08-19T11:24:06;98703.16;;;26.79;51.18
15604;BME280;7902;49.042;9.092;2022-08-19T11:26:33;98701.22;;;26.68;50.99
15604;BME280;7902;49.042;9.092;2022-08-19T11:29:00;98696.16;;;26.78;50.80
15604;BME280;7902;49.042;9.092;2022-08-19T11:31:30;98707.44;;;26.69;51.13
15604;BME280;7902;49.042;9.092;2022-08-19T11:34:01;98700.72;;;26.78;50.61
15604;BME280;7902;49.042;9.092;2022-08-19T11:36:29;98697.88;;;26.73;50.89
15604;BME280;7902;49.042;9.092;2022-08-19T11:38:55;98696.22;;;26.72;51.12
15604;BME280;7902;49.042;9.092;2022-08-19T11:41:23;98704.66;;;26.75;50.76
15604;BME280;7902;49.042;9.092;2022-08-19T11:43:50;98699.06;;;26.77;50.89
15604;BME280;7902;49.042;9.092;2022-08-19T11:46:18;98702.78;;;26.76;50.97
15604;BME280;7902;49.042;9.092;2022-08-19T11:48:44;98700.41;;;26.68;51.26
15604;BME280;7902;49.042;9.092;2022-08-19T11:51:12;98706.47;;;26.81;50.94
15604;BME280;7902;49.042;9.092;2022-08-19T11:53:39;98697.41;;;26.76;50.78
15604;BME280;7902;49.042;9.092;2022-08-19T11:56:05;98693.66;;;26.77;49.94
15604;BME280;7902;49.042;9.092;2022-08-19T11:58:32;98696.38;;;26.77;49.98
15604;BME280;7902;49.042;9.092;2022-08-19T12:00:59;98687.41;;;26.83;49.66
15604;BME280;7902;49.042;9.092;2022-08-19T12:03:25;98693.88;;;26.75;50.59
15604;BME280;7902;49.042;9.092;2022-08-19T12:05:51;98700.34;;;26.74;50.10
15604;BME280;7902;49.042;9.092;2022-08-19T12:08:18;98696.56;;;26.75;49.92
15604;BME280;7902;49.042;9.092;2022-08-19T12:10:44;98697.41;;;26.76;49.53
15604;BME280;7902;49.042;9.092;2022-08-19T12:13:12;98706.75;;;26.55;49.21
15604;BME280;7902;49.042;9.092;2022-08-19T12:15:45;98708.88;;;26.28;50.61
15604;BME280;7902;49.042;9.092;2022-08-19T12:18:12;98706.13;;;26.35;50.53
15604;BME280;7902;49.042;9.092;2022-08-19T12:20:40;98707.59;;;26.06;51.86
15604;BME280;7902;49.042;9.092;2022-08-19T12:23:08;98702.66;;;26.03;52.10
15604;BME280;7902;49.042;9.092;2022-08-19T12:25:43;98707.91;;;26.23;52.55
15604;BME280;7902;49.042;9.092;2022-08-19T12:28:16;98709.97;;;26.45;52.65
15604;BME280;7902;49.042;9.092;2022-08-19T12:30:42;98698.91;;;26.53;53.27
15604;BME280;7902;49.042;9.092;2022-08-19T12:33:08;98686.47;;;26.52;53.48
15604;BME280;7902;49.042;9.092;2022-08-19T12:35:34;98681.09;;;26.52;53.09
15604;BME280;7902;49.042;9.092;2022-08-19T12:38:00;98676.47;;;26.59;53.62
15604;BME280;7902;49.042;9.092;2022-08-19T12:40:28;98682.75;;;26.53;52.95
15604;BME280;7902;49.042;9.092;2022-08-19T12:42:54;98673.63;;;26.54;52.78
15604;BME280;7902;49.042;9.092;2022-08-19T12:45:20;98675.66;;;26.59;53.12
15604;BME280;7902;49.042;9.092;2022-08-19T12:47:47;98679.44;;;26.51;53.82
15604;BME280;7902;49.042;9.092;2022-08-19T12:50:13;98672.66;;;26.67;53.33
15604;BME280;7902;49.042;9.092;2022-08-19T12:52:39;98681.34;;;26.69;53.79
15604;BME280;7902;49.042;9.092;2022-08-19T12:55:08;98683.41;;;26.67;53.61
15604;BME280;7902;49.042;9.092;2022-08-19T12:57:34;98684.19;;;26.74;53.34
15604;BME280;7902;49.042;9.092;2022-08-19T13:00:10;98696.81;;;26.74;52.06
15604;BME280;7902;49.042;9.092;2022-08-19T13:02:40;98697.03;;;26.72;52.56
15604;BME280;7902;49.042;9.092;2022-08-19T13:05:09;98699.59;;;26.67;53.60
15604;BME280;7902;49.042;9.092;2022-08-19T13:07:37;98697.72;;;26.68;52.81
15604;BME280;7902;49.042;9.092;2022-08-19T13:10:06;98694.56;;;26.71;52.76
15604;BME280;7902;49.042;9.092;2022-08-19T13:12:33;98692.53;;;26.66;52.89
15604;BME280;7902;49.042;9.092;2022-08-19T13:14:58;98695.63;;;26.70;53.07
15604;BME280;7902;49.042;9.092;2022-08-19T13:17:24;98701.22;;;26.68;53.45
15604;BME280;7902;49.042;9.092;2022-08-19T13:19:50;98689.94;;;26.59;53.66
15604;BME280;7902;49.042;9.092;2022-08-19T13:22:17;98688.88;;;26.60;54.14
15604;BME280;7902;49.042;9.092;2022-08-19T13:24:43;98698.59;;;26.61;53.55